Terminal Aerodrome Forecast
Issued by NWS Norman, OK

Home | Current Version | Previous Version | Text Only | Print | Product List | Glossary On
Versions: 1 2 3 4 5 6 7 8 9 10 11 12 13 14 15 16 17 18 19 20
000
FTUS44 KOUN 262326
TAFSPS
TAF
KSPS 262326Z 2700/2724 34014KT P6SM BKN035
     FM270600 35016G22KT P6SM OVC020
     FM271500 36014KT P6SM OVC025
     FM271800 36012KT P6SM BKN035
     FM272100 36010KT P6SM SCT040=

USA.gov is the U.S. government's official web portal to all federal, state and local government web resources and services.